createdAt,value
2017-01-16T00:00:36.365Z,1018.26
2017-01-16T00:01:47.961Z,1018.29
2017-01-16T00:02:59.412Z,1018.25
2017-01-16T00:04:10.809Z,1018.23
2017-01-16T00:05:22.207Z,1018.25
2017-01-16T00:06:33.604Z,1018.26
2017-01-16T00:07:45.003Z,1018.23
2017-01-16T00:08:56.446Z,1018.2
2017-01-16T00:10:07.841Z,1018.19
2017-01-16T00:11:19.233Z,1018.19
2017-01-16T00:12:30.636Z,1018.19
2017-01-16T00:13:42.039Z,1018.24
2017-01-16T00:14:53.491Z,1018.24
2017-01-16T00:16:04.884Z,1018.22
2017-01-16T00:17:16.284Z,1018.23
2017-01-16T00:18:27.880Z,1018.21
2017-01-16T00:19:39.272Z,1018.21
2017-01-16T00:20:50.715Z,1018.22
2017-01-16T00:22:02.340Z,1018.22
2017-01-16T00:23:13.738Z,1018.25
2017-01-16T00:24:25.331Z,1018.3
2017-01-16T00:25:36.756Z,1018.31
2017-01-16T00:26:48.206Z,1018.33
2017-01-16T00:27:59.827Z,1018.34
2017-01-16T00:29:11.222Z,1018.31
2017-01-16T00:30:22.622Z,1018.37
2017-01-16T00:31:34.031Z,1018.39
2017-01-16T00:32:45.475Z,1018.35
2017-01-16T00:33:56.869Z,1018.39
2017-01-16T00:35:08.267Z,1018.37
2017-01-16T00:36:19.865Z,1018.34
2017-01-16T00:37:31.263Z,1018.34
2017-01-16T00:38:42.718Z,1018.33
2017-01-16T00:39:54.111Z,1018.32
2017-01-16T00:41:05.512Z,1018.35
2017-01-16T00:42:16.910Z,1018.35
2017-01-16T00:43:28.309Z,1018.42
2017-01-16T00:44:39.752Z,1018.36
2017-01-16T00:45:51.155Z,1018.41
2017-01-16T00:47:02.547Z,1018.39
2017-01-16T00:48:13.953Z,1018.39
2017-01-16T00:49:25.557Z,1018.41
2017-01-16T00:50:37.010Z,1018.45
2017-01-16T00:51:48.408Z,1018.43
2017-01-16T00:53:00.003Z,1018.44
2017-01-16T00:54:11.407Z,1018.41
2017-01-16T00:55:23.000Z,1018.42
2017-01-16T00:56:34.451Z,1018.42
2017-01-16T00:57:45.850Z,1018.4
2017-01-16T00:58:57.250Z,1018.38
2017-01-16T01:00:08.657Z,1018.37
2017-01-16T01:01:20.062Z,1018.33
2017-01-16T01:02:31.513Z,1018.31
2017-01-16T01:03:42.912Z,1018.31
2017-01-16T01:04:54.313Z,1018.34
2017-01-16T01:06:05.725Z,1018.34
2017-01-16T01:07:17.130Z,1018.33
2017-01-16T01:08:28.586Z,1018.34
2017-01-16T01:09:39.988Z,1018.35
2017-01-16T01:10:51.378Z,1018.35
2017-01-16T01:12:02.780Z,1018.32
2017-01-16T01:13:14.184Z,1018.36
2017-01-16T01:14:25.628Z,1018.36
2017-01-16T01:15:37.025Z,1018.34
2017-01-16T01:16:48.427Z,1018.35
2017-01-16T01:17:59.825Z,1018.42
2017-01-16T01:19:11.223Z,1018.46
2017-01-16T01:20:22.664Z,1018.49
2017-01-16T01:21:34.069Z,1018.5
2017-01-16T01:22:45.473Z,1018.47
2017-01-16T01:23:56.874Z,1018.48
2017-01-16T01:25:08.282Z,1018.45
2017-01-16T01:26:19.970Z,1018.48
2017-01-16T01:27:31.359Z,1018.51
2017-01-16T01:28:42.962Z,1018.51
2017-01-16T01:29:54.561Z,1018.55
2017-01-16T01:31:05.975Z,1018.52
2017-01-16T01:32:17.425Z,1018.53
2017-01-16T01:33:28.819Z,1018.51
2017-01-16T01:34:40.222Z,1018.51
2017-01-16T01:35:51.617Z,1018.48
2017-01-16T01:37:03.454Z,1018.51
2017-01-16T01:38:15.112Z,1018.54
2017-01-16T01:39:26.709Z,1018.52
2017-01-16T01:40:38.139Z,1018.49
2017-01-16T01:41:49.538Z,1018.51
2017-01-16T01:43:00.937Z,1018.58
2017-01-16T01:44:12.388Z,1018.57
2017-01-16T01:45:23.792Z,1018.54
2017-01-16T01:46:35.194Z,1018.54
2017-01-16T01:47:46.600Z,1018.52
2017-01-16T01:48:57.996Z,1018.52
2017-01-16T01:50:09.450Z,1018.52
2017-01-16T01:51:20.850Z,1018.53
2017-01-16T01:52:32.453Z,1018.55
2017-01-16T01:53:43.854Z,1018.6
2017-01-16T01:54:55.257Z,1018.56
2017-01-16T01:56:06.740Z,1018.57
2017-01-16T01:57:18.132Z,1018.6
2017-01-16T01:58:29.530Z,1018.63
2017-01-16T01:59:40.928Z,1018.67
2017-01-16T02:00:52.334Z,1018.64
2017-01-16T02:02:03.779Z,1018.66
2017-01-16T02:03:15.179Z,1018.72
2017-01-16T02:04:26.579Z,1018.71
2017-01-16T02:05:38.176Z,1018.67
2017-01-16T02:06:49.775Z,1018.75
2017-01-16T02:08:01.426Z,1018.71
2017-01-16T02:09:12.826Z,1018.7
2017-01-16T02:10:24.430Z,1018.67
2017-01-16T02:11:35.821Z,1018.71
2017-01-16T02:12:47.214Z,1018.68
2017-01-16T02:13:58.666Z,1018.72
2017-01-16T02:15:10.065Z,1018.69
2017-01-16T02:16:21.672Z,1018.75
2017-01-16T02:17:33.100Z,1018.75
2017-01-16T02:18:44.504Z,1018.75
2017-01-16T02:19:55.954Z,1018.79
2017-01-16T02:21:07.392Z,1018.83
2017-01-16T02:22:18.785Z,1018.8
2017-01-16T02:23:30.213Z,1018.82
2017-01-16T02:24:41.812Z,1018.84
2017-01-16T02:25:53.268Z,1018.83
2017-01-16T02:27:04.672Z,1018.88
2017-01-16T02:28:16.079Z,1018.86
2017-01-16T02:29:27.475Z,1018.86
2017-01-16T02:30:38.878Z,1018.84
2017-01-16T02:31:50.318Z,1018.89
2017-01-16T02:33:01.712Z,1018.91
2017-01-16T02:34:13.117Z,1018.91
2017-01-16T02:35:24.721Z,1018.94
2017-01-16T02:36:36.329Z,1018.89
2017-01-16T02:37:47.776Z,1018.91
2017-01-16T02:38:59.174Z,1018.86
2017-01-16T02:40:10.582Z,1018.88
2017-01-16T02:41:21.988Z,1018.89
2017-01-16T02:42:33.396Z,1018.9
2017-01-16T02:43:44.851Z,1018.9
2017-01-16T02:44:56.258Z,1018.93
2017-01-16T02:46:07.657Z,1018.95
2017-01-16T02:47:19.063Z,1018.97
2017-01-16T02:48:30.457Z,1018.97
2017-01-16T02:49:41.909Z,1018.99
2017-01-16T02:50:53.307Z,1019.01
2017-01-16T02:52:04.816Z,1019.02
2017-01-16T02:53:17.141Z,1019.04
2017-01-16T02:54:28.694Z,1019.06
2017-01-16T02:55:40.139Z,1019.06
2017-01-16T02:56:51.538Z,1019.04
2017-01-16T02:58:02.934Z,1019.07
2017-01-16T02:59:14.338Z,1019.12
2017-01-16T03:00:25.728Z,1019.09
2017-01-16T03:01:37.181Z,1019.1
2017-01-16T03:02:48.981Z,1019.08
2017-01-16T03:04:00.414Z,1019.11
2017-01-16T03:05:11.812Z,1019.09
2017-01-16T03:06:23.206Z,1019.11
2017-01-16T03:07:34.863Z,1019.07
2017-01-16T03:08:46.257Z,1019.03
2017-01-16T03:09:57.654Z,1019.07
2017-01-16T03:11:09.052Z,1019.06
2017-01-16T03:12:20.652Z,1019.09
2017-01-16T03:13:32.105Z,1019.13
2017-01-16T03:14:43.510Z,1019.12
2017-01-16T03:15:54.903Z,1019.14
2017-01-16T03:17:06.315Z,1019.18
2017-01-16T03:18:17.926Z,1019.18
2017-01-16T03:19:29.379Z,1019.18
2017-01-16T03:20:40.778Z,1019.14
2017-01-16T03:21:52.176Z,1019.17
2017-01-16T03:23:03.779Z,1019.16
2017-01-16T03:24:15.175Z,1019.21
2017-01-16T03:25:26.823Z,1019.21
2017-01-16T03:26:38.421Z,1019.2
2017-01-16T03:27:50.018Z,1019.21
2017-01-16T03:29:01.425Z,1019.21
2017-01-16T03:30:13.030Z,1019.22
2017-01-16T03:31:24.491Z,1019.25
2017-01-16T03:32:36.116Z,1019.29
2017-01-16T03:33:47.525Z,1019.27
2017-01-16T03:34:59.120Z,1019.33
2017-01-16T03:36:10.516Z,1019.32
2017-01-16T03:37:21.968Z,1019.33
2017-01-16T03:38:33.360Z,1019.37
2017-01-16T03:39:44.767Z,1019.37
2017-01-16T03:40:56.173Z,1019.38
2017-01-16T03:42:07.579Z,1019.33
2017-01-16T03:43:19.034Z,1019.38
2017-01-16T03:44:30.434Z,1019.35
2017-01-16T03:45:41.836Z,1019.29
2017-01-16T03:46:53.433Z,1019.28
2017-01-16T03:48:04.834Z,1019.32
2017-01-16T03:49:16.289Z,1019.34
2017-01-16T03:50:27.896Z,1019.32
2017-01-16T03:51:39.289Z,1019.28
2017-01-16T03:52:50.715Z,1019.33
2017-01-16T03:54:02.109Z,1019.29
2017-01-16T03:55:13.556Z,1019.28
2017-01-16T03:56:24.960Z,1019.31
2017-01-16T03:57:36.365Z,1019.33
2017-01-16T03:58:47.767Z,1019.37
2017-01-16T03:59:59.198Z,1019.38
2017-01-16T04:01:10.658Z,1019.35
2017-01-16T04:02:22.256Z,1019.37
2017-01-16T04:03:33.653Z,1019.41
2017-01-16T04:04:45.263Z,1019.39
2017-01-16T04:05:56.657Z,1019.39
2017-01-16T04:07:08.317Z,1019.39
2017-01-16T04:08:19.716Z,1019.4
2017-01-16T04:09:31.118Z,1019.44
2017-01-16T04:10:42.518Z,1019.42
2017-01-16T04:11:53.923Z,1019.41
2017-01-16T04:13:05.377Z,1019.41
2017-01-16T04:14:16.783Z,1019.41
2017-01-16T04:15:28.185Z,1019.4
2017-01-16T04:16:39.589Z,1019.39
2017-01-16T04:17:50.994Z,1019.4
2017-01-16T04:19:02.452Z,1019.43
2017-01-16T04:20:13.849Z,1019.43
2017-01-16T04:21:25.258Z,1019.44
2017-01-16T04:22:36.658Z,1019.46
2017-01-16T04:23:48.254Z,1019.45
2017-01-16T04:24:59.701Z,1019.51
2017-01-16T04:26:11.100Z,1019.5
2017-01-16T04:27:22.503Z,1019.49
2017-01-16T04:28:33.904Z,1019.51
2017-01-16T04:29:45.507Z,1019.52
2017-01-16T04:30:56.951Z,1019.52
2017-01-16T04:32:08.353Z,1019.53
2017-01-16T04:33:19.757Z,1019.51
2017-01-16T04:34:31.158Z,1019.57
2017-01-16T04:35:42.557Z,1019.59
2017-01-16T04:36:54.007Z,1019.57
2017-01-16T04:38:05.409Z,1019.58
2017-01-16T04:39:17.017Z,1019.58
2017-01-16T04:40:28.419Z,1019.64
2017-01-16T04:41:39.820Z,1019.62
2017-01-16T04:42:51.266Z,1019.63
2017-01-16T04:44:02.701Z,1019.65
2017-01-16T04:45:14.121Z,1019.66
2017-01-16T04:46:25.512Z,1019.65
2017-01-16T04:47:36.912Z,1019.68
2017-01-16T04:48:48.360Z,1019.68
2017-01-16T04:49:59.994Z,1019.68
2017-01-16T04:51:11.598Z,1019.72
2017-01-16T04:52:22.999Z,1019.72
2017-01-16T04:53:34.601Z,1019.69
2017-01-16T04:54:46.255Z,1019.72
2017-01-16T04:55:57.654Z,1019.73
2017-01-16T04:57:09.060Z,1019.71
2017-01-16T04:58:20.457Z,1019.74
2017-01-16T04:59:32.057Z,1019.71
2017-01-16T05:00:43.508Z,1019.74
2017-01-16T05:01:55.103Z,1019.73
2017-01-16T05:03:06.513Z,1019.68
2017-01-16T05:04:17.914Z,1019.66
2017-01-16T05:05:29.325Z,1019.69
2017-01-16T05:06:40.804Z,1019.68
2017-01-16T05:07:52.209Z,1019.73
2017-01-16T05:09:03.604Z,1019.77
2017-01-16T05:10:15.204Z,1019.84
2017-01-16T05:11:26.805Z,1019.85
2017-01-16T05:12:38.257Z,1019.84
2017-01-16T05:13:49.670Z,1019.86
2017-01-16T05:15:01.267Z,1019.91
2017-01-16T05:16:12.666Z,1019.9
2017-01-16T05:17:24.074Z,1019.89
2017-01-16T05:18:35.545Z,1019.9
2017-01-16T05:19:47.144Z,1019.9
2017-01-16T05:20:58.545Z,1019.94
2017-01-16T05:22:09.975Z,1019.95
2017-01-16T05:23:21.385Z,1019.96
2017-01-16T05:24:32.836Z,1019.98
2017-01-16T05:25:44.229Z,1019.97
2017-01-16T05:26:55.630Z,1020.02
2017-01-16T05:28:07.030Z,1020.07
2017-01-16T05:29:18.431Z,1020.08
2017-01-16T05:30:29.879Z,1020.08
2017-01-16T05:31:41.271Z,1020.13
2017-01-16T05:32:52.673Z,1020.11
2017-01-16T05:34:04.077Z,1020.16
2017-01-16T05:35:15.485Z,1020.13
2017-01-16T05:36:26.937Z,1020.15
2017-01-16T05:37:38.341Z,1020.12
2017-01-16T05:38:49.738Z,1020.17
2017-01-16T05:40:01.143Z,1020.19
2017-01-16T05:41:12.545Z,1020.22
2017-01-16T05:42:23.993Z,1020.17
2017-01-16T05:43:35.400Z,1020.28
2017-01-16T05:44:46.802Z,1020.26
2017-01-16T05:45:58.202Z,1020.26
2017-01-16T05:47:09.608Z,1020.31
2017-01-16T05:48:21.062Z,1020.31
2017-01-16T05:49:32.491Z,1020.33
2017-01-16T05:50:43.894Z,1020.35
2017-01-16T05:51:55.285Z,1020.4
2017-01-16T05:53:06.695Z,1020.43
2017-01-16T05:54:18.343Z,1020.42
2017-01-16T05:55:29.749Z,1020.43
2017-01-16T05:56:41.145Z,1020.44
2017-01-16T05:57:52.577Z,1020.38
2017-01-16T05:59:03.987Z,1020.39
2017-01-16T06:00:15.432Z,1020.37
2017-01-16T06:01:26.839Z,1020.38
2017-01-16T06:02:38.234Z,1020.41
2017-01-16T06:03:49.632Z,1020.4
2017-01-16T06:05:01.232Z,1020.4
2017-01-16T06:06:12.683Z,1020.43
2017-01-16T06:07:24.306Z,1020.48
2017-01-16T06:08:35.704Z,1020.47
2017-01-16T06:09:47.108Z,1020.51
2017-01-16T06:10:58.505Z,1020.57
2017-01-16T06:12:09.959Z,1020.57
2017-01-16T06:13:21.367Z,1020.57
2017-01-16T06:14:32.774Z,1020.61
2017-01-16T06:15:44.186Z,1020.61
2017-01-16T06:16:55.583Z,1020.63
2017-01-16T06:18:07.028Z,1020.57
2017-01-16T06:19:18.659Z,1020.62
2017-01-16T06:20:30.059Z,1020.65
2017-01-16T06:21:41.453Z,1020.64
2017-01-16T06:22:52.854Z,1020.67
2017-01-16T06:24:04.503Z,1020.65
2017-01-16T06:25:15.900Z,1020.64
2017-01-16T06:26:27.333Z,1020.67
2017-01-16T06:27:38.734Z,1020.73
2017-01-16T06:28:50.347Z,1020.7
2017-01-16T06:30:01.805Z,1020.74
2017-01-16T06:31:13.208Z,1020.71
2017-01-16T06:32:24.614Z,1020.7
2017-01-16T06:33:36.017Z,1020.72
2017-01-16T06:34:47.416Z,1020.71
2017-01-16T06:35:58.868Z,1020.7
2017-01-16T06:37:10.262Z,1020.75
2017-01-16T06:38:21.671Z,1020.7
2017-01-16T06:39:33.074Z,1020.73
2017-01-16T06:40:44.472Z,1020.77
2017-01-16T06:41:55.953Z,1020.79
2017-01-16T06:43:07.557Z,1020.81
2017-01-16T06:44:18.952Z,1020.82
2017-01-16T06:45:30.356Z,1020.86
2017-01-16T06:46:41.757Z,1020.89
2017-01-16T06:47:53.226Z,1020.86
2017-01-16T06:49:04.636Z,1020.91
2017-01-16T06:50:16.040Z,1020.91
2017-01-16T06:51:27.438Z,1020.91
2017-01-16T06:52:38.844Z,1020.97
2017-01-16T06:53:50.500Z,1020.92
2017-01-16T06:55:01.906Z,1020.93
2017-01-16T06:56:13.314Z,1020.91
2017-01-16T06:57:24.911Z,1020.95
2017-01-16T06:58:36.510Z,1020.93
2017-01-16T06:59:47.964Z,1020.94
2017-01-16T07:00:59.363Z,1020.92
2017-01-16T07:02:10.767Z,1020.95
2017-01-16T07:03:22.163Z,1020.95
2017-01-16T07:04:33.560Z,1020.96
2017-01-16T07:05:45.014Z,1020.97
2017-01-16T07:06:56.414Z,1021.01
2017-01-16T07:08:07.818Z,1021.03
2017-01-16T07:09:19.212Z,1021.08
2017-01-16T07:10:30.619Z,1021.01
2017-01-16T07:11:42.069Z,1021.04
2017-01-16T07:12:53.871Z,1021.03
2017-01-16T07:14:05.273Z,1021.08
2017-01-16T07:15:16.696Z,1021.03
2017-01-16T07:16:28.102Z,1021.08
2017-01-16T07:17:39.554Z,1021.05
2017-01-16T07:18:50.955Z,1021.07
2017-01-16T07:20:02.360Z,1021.06
2017-01-16T07:21:13.954Z,1021.07
2017-01-16T07:22:25.561Z,1021.09
2017-01-16T07:23:37.215Z,1021.07
2017-01-16T07:24:48.626Z,1021.14
2017-01-16T07:26:00.026Z,1021.19
2017-01-16T07:27:11.419Z,1021.2
2017-01-16T07:28:23.028Z,1021.21
2017-01-16T07:29:34.673Z,1021.23
2017-01-16T07:30:46.082Z,1021.27
2017-01-16T07:31:57.476Z,1021.28
2017-01-16T07:33:08.872Z,1021.34
2017-01-16T07:34:20.277Z,1021.31
2017-01-16T07:35:31.726Z,1021.37
2017-01-16T07:36:43.128Z,1021.35
2017-01-16T07:37:54.526Z,1021.42
2017-01-16T07:39:05.926Z,1021.45
2017-01-16T07:40:17.327Z,1021.46
2017-01-16T07:41:28.788Z,1021.45
2017-01-16T07:42:40.395Z,1021.51
2017-01-16T07:43:51.799Z,1021.51
2017-01-16T07:45:03.202Z,1021.48
2017-01-16T07:46:14.608Z,1021.53
2017-01-16T07:47:26.066Z,1021.5
2017-01-16T07:48:37.668Z,1021.54
2017-01-16T07:49:49.071Z,1021.51
2017-01-16T07:51:00.468Z,1021.56
2017-01-16T07:52:11.899Z,1021.59
2017-01-16T07:53:23.497Z,1021.53
2017-01-16T07:54:34.894Z,1021.6
2017-01-16T07:55:46.311Z,1021.59
2017-01-16T07:56:57.719Z,1021.6
2017-01-16T07:58:09.117Z,1021.55
2017-01-16T07:59:20.575Z,1021.58
2017-01-16T08:00:31.966Z,1021.6
2017-01-16T08:01:43.376Z,1021.64
2017-01-16T08:02:54.976Z,1021.68
2017-01-16T08:04:06.376Z,1021.67
2017-01-16T08:05:17.819Z,1021.68
2017-01-16T08:06:29.223Z,1021.76
2017-01-16T08:07:40.617Z,1021.73
2017-01-16T08:08:52.218Z,1021.73
2017-01-16T08:10:03.612Z,1021.75
2017-01-16T08:11:15.269Z,1021.77
2017-01-16T08:12:26.679Z,1021.79
2017-01-16T08:13:38.085Z,1021.84
2017-01-16T08:14:49.479Z,1021.84
2017-01-16T08:16:00.889Z,1021.86
2017-01-16T08:17:12.343Z,1021.84
2017-01-16T08:18:23.738Z,1021.84
2017-01-16T08:19:35.144Z,1021.87
2017-01-16T08:20:46.549Z,1021.91
2017-01-16T08:21:57.959Z,1021.95
2017-01-16T08:23:09.413Z,1021.96
2017-01-16T08:24:20.817Z,1021.92
2017-01-16T08:25:32.219Z,1021.95
2017-01-16T08:26:43.618Z,1021.95
2017-01-16T08:27:55.021Z,1022.02
2017-01-16T08:29:06.727Z,1022.05
2017-01-16T08:30:18.134Z,1022.04
2017-01-16T08:31:29.554Z,1022.02
2017-01-16T08:32:40.960Z,1022.02
2017-01-16T08:33:52.359Z,1022.09
2017-01-16T08:35:03.809Z,1022.14
2017-01-16T08:36:15.204Z,1022.14
2017-01-16T08:37:26.600Z,1022.11
2017-01-16T08:38:38.200Z,1022.1
2017-01-16T08:39:49.591Z,1022.1
2017-01-16T08:41:01.050Z,1022.05
2017-01-16T08:42:12.484Z,1022.1
2017-01-16T08:43:23.883Z,1022.15
2017-01-16T08:44:35.286Z,1022.12
2017-01-16T08:45:46.891Z,1022.13
2017-01-16T08:46:58.365Z,1022.16
2017-01-16T08:48:09.756Z,1022.2
2017-01-16T08:49:21.152Z,1022.18
2017-01-16T08:50:32.563Z,1022.23
2017-01-16T08:51:43.963Z,1022.19
2017-01-16T08:52:55.416Z,1022.24
2017-01-16T08:54:06.827Z,1022.23
2017-01-16T08:55:18.424Z,1022.25
2017-01-16T08:56:29.824Z,1022.29
2017-01-16T08:57:41.260Z,1022.32
2017-01-16T08:58:52.703Z,1022.33
2017-01-16T09:00:04.097Z,1022.34
2017-01-16T09:01:15.499Z,1022.35
2017-01-16T09:02:27.124Z,1022.36
2017-01-16T09:03:38.525Z,1022.39
2017-01-16T09:04:49.981Z,1022.39
2017-01-16T09:06:01.584Z,1022.4
2017-01-16T09:07:12.986Z,1022.39
2017-01-16T09:08:24.791Z,1022.4
2017-01-16T09:09:36.195Z,1022.44
2017-01-16T09:10:47.680Z,1022.44
2017-01-16T09:11:59.280Z,1022.39
2017-01-16T09:13:10.680Z,1022.42
2017-01-16T09:14:22.081Z,1022.44
2017-01-16T09:15:33.479Z,1022.47
2017-01-16T09:16:44.949Z,1022.49
2017-01-16T09:17:56.351Z,1022.5
2017-01-16T09:19:07.757Z,1022.51
2017-01-16T09:20:19.159Z,1022.65
2017-01-16T09:21:30.558Z,1022.66
2017-01-16T09:22:42.019Z,1022.61
2017-01-16T09:23:53.437Z,1022.61
2017-01-16T09:25:04.839Z,1022.61
2017-01-16T09:26:16.247Z,1022.59
2017-01-16T09:27:27.669Z,1022.63
2017-01-16T09:28:39.127Z,1022.66
2017-01-16T09:29:50.523Z,1022.68
2017-01-16T09:31:01.928Z,1022.68
2017-01-16T09:32:13.335Z,1022.69
2017-01-16T09:33:24.741Z,1022.76
2017-01-16T09:34:36.197Z,1022.68
2017-01-16T09:35:47.593Z,1022.7
2017-01-16T09:36:59.003Z,1022.63
2017-01-16T09:38:10.445Z,1022.66
2017-01-16T09:39:21.855Z,1022.68
2017-01-16T09:40:33.512Z,1022.68
2017-01-16T09:41:44.916Z,1022.69
2017-01-16T09:42:56.319Z,1022.69
2017-01-16T09:44:07.755Z,1022.69
2017-01-16T09:45:19.164Z,1022.72
2017-01-16T09:46:30.624Z,1022.74
2017-01-16T09:47:42.049Z,1022.76
2017-01-16T09:48:53.482Z,1022.78
2017-01-16T09:50:04.890Z,1022.83
2017-01-16T09:51:16.295Z,1022.77
2017-01-16T09:52:27.748Z,1022.73
2017-01-16T09:53:39.154Z,1022.85
2017-01-16T09:54:50.576Z,1022.75
2017-01-16T09:56:01.984Z,1022.8
2017-01-16T09:57:13.418Z,1022.78
2017-01-16T09:58:24.879Z,1022.83
2017-01-16T09:59:36.486Z,1022.85
2017-01-16T10:00:48.101Z,1022.89
2017-01-16T10:01:59.508Z,1022.84
2017-01-16T10:03:10.910Z,1022.82
2017-01-16T10:04:22.370Z,1022.81
2017-01-16T10:05:33.775Z,1022.78
2017-01-16T10:06:45.191Z,1022.83
2017-01-16T10:07:56.608Z,1022.87
2017-01-16T10:09:08.025Z,1022.97
2017-01-16T10:10:19.688Z,1022.94
2017-01-16T10:11:31.104Z,1022.92
2017-01-16T10:12:42.717Z,1022.93
2017-01-16T10:13:54.327Z,1022.94
2017-01-16T10:15:05.760Z,1022.97
2017-01-16T10:16:17.223Z,1022.97
2017-01-16T10:17:28.635Z,1023.05
2017-01-16T10:18:40.040Z,1023.01
2017-01-16T10:19:51.658Z,1023.07
2017-01-16T10:21:03.075Z,1023.06
2017-01-16T10:22:14.732Z,1023.11
2017-01-16T10:23:26.136Z,1023.1
2017-01-16T10:24:37.744Z,1023.14
2017-01-16T10:25:49.155Z,1023.13
2017-01-16T10:27:00.571Z,1023.12
2017-01-16T10:28:12.034Z,1023.06
2017-01-16T10:29:23.448Z,1023.02
2017-01-16T10:30:34.857Z,1022.98
2017-01-16T10:31:46.265Z,1023.03
2017-01-16T10:32:57.676Z,1023.01
2017-01-16T10:34:09.135Z,1023.01
2017-01-16T10:35:20.948Z,1023.03
2017-01-16T10:36:32.558Z,1022.99
2017-01-16T10:37:43.968Z,1023.03
2017-01-16T10:38:55.386Z,1023.06
2017-01-16T10:40:06.849Z,1023.08
2017-01-16T10:41:18.259Z,1023.07
2017-01-16T10:42:29.688Z,1023.1
2017-01-16T10:43:41.109Z,1023.05
2017-01-16T10:44:52.526Z,1023.04
2017-01-16T10:46:04.000Z,1023.04
2017-01-16T10:47:15.414Z,1023.04
2017-01-16T10:48:27.029Z,1023.04
2017-01-16T10:49:38.457Z,1023.02
2017-01-16T10:50:50.077Z,1023.03
2017-01-16T10:52:01.571Z,1023.07
2017-01-16T10:53:12.991Z,1023.11
2017-01-16T10:54:24.410Z,1023.12
2017-01-16T10:55:35.837Z,1023.17
2017-01-16T10:56:47.307Z,1023.1
2017-01-16T10:57:58.727Z,1023.1
2017-01-16T10:59:10.140Z,1023.12
2017-01-16T11:00:21.562Z,1023.14
2017-01-16T11:01:33.003Z,1023.17
2017-01-16T11:02:44.465Z,1023.17
2017-01-16T11:03:55.883Z,1023.23
2017-01-16T11:05:07.302Z,1023.2
2017-01-16T11:06:18.715Z,1023.19
2017-01-16T11:07:30.140Z,1023.13
2017-01-16T11:08:41.605Z,1023.11
2017-01-16T11:09:53.022Z,1023.07
2017-01-16T11:11:04.451Z,1023.06
2017-01-16T11:12:16.074Z,1023.06
2017-01-16T11:13:27.493Z,1023.06
2017-01-16T11:14:39.367Z,1023.03
2017-01-16T11:15:50.787Z,1023.05
2017-01-16T11:17:02.202Z,1023.09
2017-01-16T11:18:13.618Z,1023.09
2017-01-16T11:19:25.029Z,1023.1
2017-01-16T11:20:36.503Z,1023.09
2017-01-16T11:21:47.933Z,1023.1
2017-01-16T11:22:59.349Z,1023.13
2017-01-16T11:24:10.770Z,1023.13
2017-01-16T11:25:22.412Z,1023.12
2017-01-16T11:26:33.872Z,1023.12
2017-01-16T11:27:45.487Z,1023.07
2017-01-16T11:28:56.901Z,1023.09
2017-01-16T11:30:08.314Z,1023.06
2017-01-16T11:31:19.725Z,1023.04
2017-01-16T11:32:31.185Z,1023.05
2017-01-16T11:33:42.596Z,1023.05
2017-01-16T11:34:54.018Z,1023.08
2017-01-16T11:36:05.469Z,1023.05
2017-01-16T11:37:16.896Z,1023.07
2017-01-16T11:38:28.759Z,1023.07
2017-01-16T11:39:40.169Z,1023.07
2017-01-16T11:40:51.583Z,1023.09
2017-01-16T11:42:02.991Z,1023.06
2017-01-16T11:43:14.396Z,1023.04
2017-01-16T11:44:25.854Z,1022.99
2017-01-16T11:45:37.262Z,1023
2017-01-16T11:46:48.667Z,1023.02
2017-01-16T11:48:00.074Z,1023.01
2017-01-16T11:49:11.497Z,1023.05
2017-01-16T11:50:22.987Z,1023.08
2017-01-16T11:51:34.613Z,1023.06
2017-01-16T11:52:46.017Z,1023.09
2017-01-16T11:53:57.623Z,1023.06
2017-01-16T11:55:09.033Z,1023.04
2017-01-16T11:56:20.492Z,1023.07
2017-01-16T11:57:31.903Z,1023.05
2017-01-16T11:58:43.304Z,1023.08
2017-01-16T11:59:54.703Z,1023.11
2017-01-16T12:01:06.106Z,1023.13
2017-01-16T12:02:17.556Z,1023.17
2017-01-16T12:03:28.961Z,1023.13
2017-01-16T12:04:40.360Z,1023.18
2017-01-16T12:05:51.767Z,1023.24
2017-01-16T12:07:03.173Z,1023.17
2017-01-16T12:08:14.623Z,1023.14
2017-01-16T12:09:26.071Z,1023.24
2017-01-16T12:10:37.478Z,1023.19
2017-01-16T12:11:48.885Z,1023.19
2017-01-16T12:13:00.299Z,1023.21
2017-01-16T12:14:11.753Z,1023.22
2017-01-16T12:15:23.360Z,1023.21
2017-01-16T12:16:34.771Z,1023.2
2017-01-16T12:17:46.186Z,1023.22
2017-01-16T12:18:57.591Z,1023.16
2017-01-16T12:20:09.254Z,1023.19
2017-01-16T12:21:20.860Z,1023.18
2017-01-16T12:22:32.268Z,1023.24
2017-01-16T12:23:43.678Z,1023.27
2017-01-16T12:24:55.106Z,1023.25
2017-01-16T12:26:06.568Z,1023.28
2017-01-16T12:27:17.971Z,1023.28
2017-01-16T12:28:29.382Z,1023.31
2017-01-16T12:29:40.798Z,1023.27
2017-01-16T12:30:52.216Z,1023.2
2017-01-16T12:32:03.677Z,1023.21
2017-01-16T12:33:15.086Z,1023.24
2017-01-16T12:34:26.499Z,1023.2
2017-01-16T12:35:37.904Z,1023.22
2017-01-16T12:36:49.512Z,1023.17
2017-01-16T12:38:00.981Z,1023.16
2017-01-16T12:39:12.392Z,1023.13
2017-01-16T12:40:24.003Z,1023.14
2017-01-16T12:41:35.408Z,1023.11
2017-01-16T12:42:46.818Z,1023.1
2017-01-16T12:43:58.276Z,1023.12
2017-01-16T12:45:09.678Z,1023.15
2017-01-16T12:46:21.085Z,1023.15
2017-01-16T12:47:32.691Z,1023.16
2017-01-16T12:48:44.097Z,1023.16
2017-01-16T12:49:55.754Z,1023.17
2017-01-16T12:51:07.160Z,1023.14
2017-01-16T12:52:18.567Z,1023.16
2017-01-16T12:53:29.974Z,1023.19
2017-01-16T12:54:41.382Z,1023.19
2017-01-16T12:55:52.829Z,1023.21
2017-01-16T12:57:04.233Z,1023.21
2017-01-16T12:58:15.845Z,1023.21
2017-01-16T12:59:27.254Z,1023.2
2017-01-16T13:00:38.691Z,1023.19
2017-01-16T13:01:50.154Z,1023.19
2017-01-16T13:03:01.560Z,1023.21
2017-01-16T13:04:12.973Z,1023.22
2017-01-16T13:05:24.413Z,1023.21
2017-01-16T13:06:35.824Z,1023.22
2017-01-16T13:07:47.272Z,1023.22
2017-01-16T13:08:58.682Z,1023.25
2017-01-16T13:10:10.092Z,1023.23
2017-01-16T13:11:21.699Z,1023.25
2017-01-16T13:12:33.307Z,1023.25
2017-01-16T13:13:44.766Z,1023.26
2017-01-16T13:14:56.171Z,1023.25
2017-01-16T13:16:07.578Z,1023.28
2017-01-16T13:17:18.982Z,1023.3
2017-01-16T13:18:30.387Z,1023.28
2017-01-16T13:19:41.842Z,1023.34
2017-01-16T13:20:53.251Z,1023.32
2017-01-16T13:22:04.659Z,1023.31
2017-01-16T13:23:16.069Z,1023.41
2017-01-16T13:24:27.485Z,1023.42
2017-01-16T13:25:38.953Z,1023.49
2017-01-16T13:26:50.358Z,1023.49
2017-01-16T13:28:01.765Z,1023.47
2017-01-16T13:29:13.169Z,1023.49
2017-01-16T13:30:24.572Z,1023.44
2017-01-16T13:31:36.027Z,1023.51
2017-01-16T13:32:47.440Z,1023.52
2017-01-16T13:33:58.859Z,1023.51
2017-01-16T13:35:10.267Z,1023.53
2017-01-16T13:36:21.675Z,1023.52
2017-01-16T13:37:33.121Z,1023.53
2017-01-16T13:38:44.517Z,1023.55
2017-01-16T13:39:55.913Z,1023.53
2017-01-16T13:41:07.317Z,1023.58
2017-01-16T13:42:18.720Z,1023.6
2017-01-16T13:43:30.178Z,1023.58
2017-01-16T13:44:41.974Z,1023.64
2017-01-16T13:45:53.376Z,1023.65
2017-01-16T13:47:04.785Z,1023.67
2017-01-16T13:48:16.193Z,1023.66
2017-01-16T13:49:27.846Z,1023.74
2017-01-16T13:50:39.255Z,1023.76
2017-01-16T13:51:50.654Z,1023.74
2017-01-16T13:53:02.254Z,1023.73
2017-01-16T13:54:13.665Z,1023.71
2017-01-16T13:55:25.114Z,1023.77
2017-01-16T13:56:36.714Z,1023.77
2017-01-16T13:57:48.116Z,1023.75
2017-01-16T13:58:59.511Z,1023.77
2017-01-16T14:00:10.917Z,1023.87
2017-01-16T14:01:22.377Z,1023.87
2017-01-16T14:02:33.790Z,1023.87
2017-01-16T14:03:45.192Z,1023.85
2017-01-16T14:04:56.594Z,1023.81
2017-01-16T14:06:07.994Z,1023.86
2017-01-16T14:07:19.466Z,1023.87
2017-01-16T14:08:30.875Z,1023.85
2017-01-16T14:09:42.285Z,1023.88
2017-01-16T14:10:53.689Z,1023.89
2017-01-16T14:12:05.092Z,1023.88
2017-01-16T14:13:16.541Z,1023.92
2017-01-16T14:14:27.953Z,1023.94
2017-01-16T14:15:39.360Z,1023.96
2017-01-16T14:16:50.765Z,1023.96
2017-01-16T14:18:02.170Z,1023.99
2017-01-16T14:19:13.631Z,1024.02
2017-01-16T14:20:25.038Z,1024.04
2017-01-16T14:21:36.643Z,1024.08
2017-01-16T14:22:48.038Z,1024.08
2017-01-16T14:23:59.449Z,1024.11
2017-01-16T14:25:10.916Z,1024.09
2017-01-16T14:26:22.514Z,1024.13